Time;durP1;ratioP1;P1;durP2;ratioP2;P2;SDS_P1;SDS_P2;PMS_P1;PMS_P2;Temp;Humidity;BMP_temperature;BMP_pressure;BME280_temperature;BME280_humidity;BME280_pressure;Samples;Min_cycle;Max_cycle;Signal;HPM_P1;HPM_P2
2022/01/26 00:06:27;;;;;;;12.88;2.30;;;-4.40;99.90;;;;;;4951999;28;20415;-89
2022/01/26 00:08:55;;;;;;;8.20;1.90;;;-4.50;99.90;;;;;;4967526;28;20504;-90
2022/01/26 00:11:23;;;;;;;8.57;1.88;;;-4.50;99.90;;;;;;4997305;28;20399;-87
2022/01/26 00:13:52;;;;;;;9.23;1.87;;;-4.50;99.90;;;;;;5011609;28;20404;-87
2022/01/26 00:16:27;;;;;;;9.05;1.92;;;-4.60;99.90;;;;;;4991422;28;20401;-89
2022/01/26 00:18:59;;;;;;;9.27;2.13;;;-4.60;99.90;;;;;;4991470;28;20393;-89
2022/01/26 00:22:11;;;;;;;6.75;1.73;;;-4.60;99.90;;;;;;5008632;28;20947;-89
2022/01/26 00:29:30;;;;;;;9.15;2.10;;;-4.60;99.90;;;;;;5007730;28;20404;-87
2022/01/26 00:40:19;;;;;;;8.05;2.25;;;-4.90;99.90;;;;;;4991923;28;20458;-89
2022/01/26 00:42:49;;;;;;;8.85;1.90;;;-4.80;99.90;;;;;;4992398;28;20867;-88
2022/01/26 00:45:22;;;;;;;10.63;2.30;;;-4.80;99.90;;;;;;4991433;28;20404;-88
2022/01/26 00:47:50;;;;;;;7.73;2.00;;;-4.90;99.90;;;;;;4991440;28;20417;-88
2022/01/26 00:50:18;;;;;;;9.97;1.80;;;-5.00;99.90;;;;;;4993374;28;20401;-86
2022/01/26 00:52:52;;;;;;;9.00;1.92;;;-5.00;99.90;;;;;;4990891;28;20421;-87
2022/01/26 00:55:21;;;;;;;9.95;1.90;;;-5.10;99.90;;;;;;4998916;28;20384;-90
2022/01/26 00:57:49;;;;;;;8.82;2.10;;;-5.20;99.90;;;;;;5007548;28;20389;-87
2022/01/26 01:00:21;;;;;;;8.63;1.80;;;-5.30;99.90;;;;;;5023295;28;20416;-87
2022/01/26 01:02:49;;;;;;;8.23;1.70;;;-5.30;99.90;;;;;;4991147;28;20409;-89
2022/01/26 01:05:21;;;;;;;9.45;2.03;;;-5.30;99.90;;;;;;4991989;28;20393;-89
2022/01/26 01:07:54;;;;;;;11.85;2.58;;;-5.50;99.90;;;;;;4990887;28;20494;-87
2022/01/26 01:10:23;;;;;;;11.30;1.90;;;-5.70;99.90;;;;;;5006888;28;20441;-89
2022/01/26 01:12:56;;;;;;;7.97;1.77;;;-5.70;99.90;;;;;;4991811;28;20385;-88
2022/01/26 01:15:26;;;;;;;7.93;1.85;;;-5.70;99.90;;;;;;5023507;28;20446;-86
2022/01/26 01:18:05;;;;;;;7.13;1.93;;;-5.70;99.90;;;;;;4990629;28;20397;-87
2022/01/26 01:20:55;;;;;;;6.18;1.60;;;-5.70;99.90;;;;;;5023451;28;20393;-86
2022/01/26 01:27:06;;;;;;;7.00;1.77;;;-5.70;99.90;;;;;;5011497;28;20395;-88
2022/01/26 01:34:37;;;;;;;7.30;1.52;;;-5.70;99.90;;;;;;4997720;28;20484;-89
2022/01/26 01:37:08;;;;;;;6.40;2.03;;;-5.90;99.90;;;;;;5026433;28;20404;-89
2022/01/26 01:39:37;;;;;;;6.65;1.98;;;-5.90;99.90;;;;;;5009904;28;20885;-88
2022/01/26 01:42:06;;;;;;;6.77;1.50;;;-6.00;99.90;;;;;;5009786;28;20387;-88
2022/01/26 01:44:36;;;;;;;9.63;2.03;;;-6.10;99.90;;;;;;5043331;27;20939;-89
2022/01/26 01:47:06;;;;;;;8.02;1.77;;;-6.20;99.90;;;;;;5026232;28;20403;-88
2022/01/26 01:49:35;;;;;;;6.87;1.67;;;-6.30;99.90;;;;;;5009871;28;20474;-88
2022/01/26 01:52:11;;;;;;;8.68;1.52;;;-6.30;99.90;;;;;;5010656;28;20387;-87
2022/01/26 01:54:40;;;;;;;7.00;1.83;;;-6.40;99.90;;;;;;5026319;28;20878;-88
2022/01/26 01:57:08;;;;;;;5.97;1.80;;;-6.40;99.90;;;;;;5009934;28;20932;-89
2022/01/26 01:59:36;;;;;;;8.90;1.98;;;-6.30;99.90;;;;;;5042577;28;20800;-89
2022/01/26 02:02:04;;;;;;;6.28;1.58;;;-6.30;99.90;;;;;;5010048;28;20388;-89
2022/01/26 02:04:32;;;;;;;7.45;1.67;;;-6.40;99.90;;;;;;5009789;28;20433;-89
2022/01/26 02:06:59;;;;;;;7.93;2.28;;;-6.40;99.90;;;;;;5009199;28;20410;-88
2022/01/26 02:09:27;;;;;;;7.28;1.70;;;-6.50;99.90;;;;;;5010248;28;20468;-88
2022/01/26 02:11:57;;;;;;;7.03;1.67;;;-6.50;99.90;;;;;;5005991;28;20389;-87
2022/01/26 02:50:32;;;;;;;4.78;1.40;;;-7.10;99.90;;;;;;5009905;28;20484;-89
2022/01/26 02:53:22;;;;;;;5.47;1.52;;;-7.00;99.90;;;;;;5010366;28;20395;-85
2022/01/26 02:55:53;;;;;;;4.80;1.17;;;-7.10;99.90;;;;;;5042012;28;20394;-88
2022/01/26 03:03:39;;;;;;;4.78;1.40;;;-7.20;99.90;;;;;;4995311;28;20433;-87
2022/01/26 03:06:12;;;;;;;6.30;1.40;;;-7.30;99.90;;;;;;4990247;28;20397;-89
2022/01/26 03:08:48;;;;;;;7.88;1.63;;;-7.30;99.90;;;;;;5005178;28;20425;-88
2022/01/26 03:11:16;;;;;;;5.45;1.33;;;-7.30;99.90;;;;;;4989312;28;20424;-87
2022/01/26 03:13:50;;;;;;;5.18;1.38;;;-7.40;99.90;;;;;;4989146;28;20381;-86
2022/01/26 03:16:56;;;;;;;6.10;1.15;;;-7.50;99.90;;;;;;5021557;28;20389;-88
2022/01/26 03:19:22;;;;;;;4.55;1.38;;;-7.50;99.90;;;;;;4991288;28;20420;-88
2022/01/26 03:31:43;;;;;;;4.63;1.20;;;-7.70;99.90;;;;;;5032028;28;20487;-88
2022/01/26 03:35:58;;;;;;;7.32;1.55;;;-8.00;99.90;;;;;;5009372;28;20481;-89
2022/01/26 03:38:42;;;;;;;7.22;1.58;;;-7.90;99.90;;;;;;5009738;28;20437;-88
2022/01/26 03:41:35;;;;;;;6.32;1.50;;;-7.90;99.90;;;;;;5008106;28;20897;-90
2022/01/26 03:44:05;;;;;;;7.53;1.48;;;-7.90;99.90;;;;;;5009195;28;20403;-86
2022/01/26 03:46:34;;;;;;;5.65;1.40;;;-7.80;99.90;;;;;;5009281;28;20387;-89
2022/01/26 03:49:04;;;;;;;4.82;1.30;;;-7.80;99.90;;;;;;5041029;28;20415;-86
2022/01/26 03:51:33;;;;;;;5.03;1.38;;;-7.70;99.90;;;;;;5009399;28;20470;-89
2022/01/26 03:54:02;;;;;;;4.80;1.27;;;-7.70;99.90;;;;;;5024553;28;20399;-89
2022/01/26 03:56:31;;;;;;;7.18;1.80;;;-7.70;99.90;;;;;;4991745;28;20417;-89
2022/01/26 03:58:58;;;;;;;7.50;1.70;;;-7.70;99.90;;;;;;5007879;28;20452;-90
2022/01/26 04:01:26;;;;;;;7.13;1.40;;;-7.70;99.90;;;;;;5007762;28;20902;-90
2022/01/26 04:03:54;;;;;;;5.90;1.60;;;-7.60;99.90;;;;;;5040961;28;20795;-90
2022/01/26 04:06:23;;;;;;;4.28;1.30;;;-7.50;99.90;;;;;;5007929;28;20395;-88
2022/01/26 04:08:51;;;;;;;6.22;1.70;;;-7.60;99.90;;;;;;5008923;28;20840;-87
2022/01/26 04:13:50;;;;;;;6.43;1.58;;;-7.60;99.90;;;;;;5009011;28;20862;-88
2022/01/26 04:16:19;;;;;;;5.70;1.48;;;-7.40;99.90;;;;;;5007690;28;20426;-87
2022/01/26 04:18:47;;;;;;;8.02;2.13;;;-7.40;99.90;;;;;;5007871;28;20395;-87
2022/01/26 04:21:28;;;;;;;7.60;1.48;;;-7.40;99.90;;;;;;5007797;28;20557;-87
2022/01/26 04:24:02;;;;;;;6.82;1.60;;;-7.40;99.90;;;;;;5008048;28;20462;-88
2022/01/26 04:26:45;;;;;;;8.35;1.60;;;-7.40;99.90;;;;;;5011014;28;20934;-89
2022/01/26 04:29:19;;;;;;;8.00;1.58;;;-7.40;99.90;;;;;;5010980;28;20569;-88
2022/01/26 04:31:47;;;;;;;4.80;1.40;;;-7.40;99.90;;;;;;5012185;28;20394;-87
2022/01/26 04:34:15;;;;;;;4.28;1.50;;;-7.30;99.90;;;;;;5010962;28;20888;-87
2022/01/26 04:36:50;;;;;;;3.63;1.60;;;-7.30;99.90;;;;;;5027338;28;20399;-88
2022/01/26 04:39:24;;;;;;;5.75;1.48;;;-7.30;99.90;;;;;;5010933;28;20430;-88
2022/01/26 04:41:58;;;;;;;4.85;1.45;;;-7.30;99.90;;;;;;5011893;28;20504;-88
2022/01/26 04:44:27;;;;;;;5.80;1.60;;;-7.40;99.90;;;;;;5043727;28;20399;-87
2022/01/26 04:46:55;;;;;;;4.25;1.67;;;-7.50;99.90;;;;;;5010828;28;20403;-87
2022/01/26 04:49:23;;;;;;;5.65;1.58;;;-7.50;99.90;;;;;;5011109;28;20413;-87
2022/01/26 04:51:51;;;;;;;4.90;1.60;;;-7.60;99.90;;;;;;5010639;28;20746;-88
2022/01/26 04:54:19;;;;;;;4.07;1.40;;;-7.60;99.90;;;;;;5010482;28;20407;-89
2022/01/26 04:56:46;;;;;;;4.10;1.40;;;-7.70;99.90;;;;;;5043667;27;20460;-89
2022/01/26 04:59:14;;;;;;;3.10;1.40;;;-7.70;99.90;;;;;;5010968;28;20413;-88
2022/01/26 05:01:42;;;;;;;5.00;1.48;;;-7.80;99.90;;;;;;5008128;28;20420;-87
2022/01/26 05:04:10;;;;;;;4.57;1.60;;;-7.80;99.90;;;;;;5005419;28;20411;-87
2022/01/26 05:06:37;;;;;;;5.30;1.47;;;-7.80;99.90;;;;;;5010165;28;20495;-89
2022/01/26 05:09:05;;;;;;;3.83;1.30;;;-7.80;99.90;;;;;;5010482;28;20490;-87
2022/01/26 05:11:39;;;;;;;5.70;1.40;;;-7.90;99.90;;;;;;5011446;28;20387;-87
2022/01/26 05:14:08;;;;;;;4.97;1.50;;;-7.90;99.90;;;;;;5011584;28;20387;-87
2022/01/26 05:16:36;;;;;;;3.35;1.30;;;-7.90;99.90;;;;;;5010975;28;20475;-89
2022/01/26 05:19:05;;;;;;;3.05;1.30;;;-7.80;99.90;;;;;;5010619;28;20494;-87
2022/01/26 05:21:33;;;;;;;4.82;1.63;;;-7.80;99.90;;;;;;5010589;28;20415;-87
2022/01/26 05:24:01;;;;;;;4.85;1.50;;;-7.80;99.90;;;;;;5010272;28;20403;-87
2022/01/26 05:26:29;;;;;;;5.80;1.50;;;-7.90;99.90;;;;;;5010751;28;20406;-88
2022/01/26 05:28:56;;;;;;;8.52;1.60;;;-8.00;99.90;;;;;;5010629;28;20408;-88
2022/01/26 05:31:24;;;;;;;3.30;1.20;;;-8.00;99.90;;;;;;5011355;28;20432;-87
2022/01/26 05:33:54;;;;;;;3.08;1.33;;;-8.00;99.90;;;;;;5010952;28;20924;-87
2022/01/26 05:36:21;;;;;;;3.25;1.40;;;-8.00;99.90;;;;;;5009906;28;20402;-88
2022/01/26 05:38:49;;;;;;;5.10;1.20;;;-7.90;99.90;;;;;;5011364;28;20399;-88
2022/01/26 05:41:17;;;;;;;4.10;1.30;;;-8.00;99.90;;;;;;5044078;28;20823;-88
2022/01/26 05:43:45;;;;;;;4.75;1.60;;;-8.00;99.90;;;;;;5027495;28;20395;-89
2022/01/26 05:46:25;;;;;;;4.10;1.40;;;-8.00;99.90;;;;;;4993621;28;20792;-85
2022/01/26 05:48:53;;;;;;;3.50;1.40;;;-8.00;99.90;;;;;;5006630;28;20408;-87
2022/01/26 05:51:21;;;;;;;4.70;1.40;;;-8.10;99.90;;;;;;5012403;28;20408;-88
2022/01/26 05:53:49;;;;;;;3.33;1.27;;;-8.00;99.90;;;;;;5011664;28;20387;-89
2022/01/26 05:56:17;;;;;;;3.22;1.42;;;-8.00;99.90;;;;;;5043816;28;20504;-88
2022/01/26 05:58:45;;;;;;;4.65;1.30;;;-8.10;99.90;;;;;;5013641;28;20452;-85
2022/01/26 06:01:14;;;;;;;2.85;1.20;;;-8.20;99.90;;;;;;4994973;28;20766;-89
2022/01/26 06:03:42;;;;;;;4.53;1.50;;;-8.20;99.90;;;;;;5012444;28;20423;-87
2022/01/26 06:06:10;;;;;;;3.90;1.40;;;-8.20;99.90;;;;;;5010921;28;20442;-86
2022/01/26 06:08:37;;;;;;;3.03;1.30;;;-8.20;99.90;;;;;;5042945;28;20435;-86
2022/01/26 06:11:05;;;;;;;3.17;1.30;;;-8.20;99.90;;;;;;5011686;28;20387;-88
2022/01/26 06:13:33;;;;;;;3.77;1.30;;;-8.20;99.90;;;;;;4993772;28;20402;-86
2022/01/26 06:16:01;;;;;;;4.45;1.58;;;-8.20;99.90;;;;;;5010281;28;20404;-87
2022/01/26 06:18:29;;;;;;;2.72;1.30;;;-8.40;99.90;;;;;;5009188;28;20761;-86
2022/01/26 06:20:56;;;;;;;4.10;1.30;;;-8.30;99.90;;;;;;5010692;28;20460;-87
2022/01/26 06:23:25;;;;;;;3.95;1.40;;;-8.30;99.90;;;;;;5011274;28;20410;-87
2022/01/26 06:25:55;;;;;;;4.30;1.45;;;-8.30;99.90;;;;;;4995886;28;20403;-87
2022/01/26 06:28:26;;;;;;;27.58;16.73;;;-8.40;99.90;;;;;;5011574;28;20401;-89
2022/01/26 06:31:00;;;;;;;11.45;6.10;;;-8.50;99.90;;;;;;5005180;28;20412;-88
2022/01/26 06:33:29;;;;;;;4.78;2.10;;;-8.50;99.90;;;;;;4994427;28;20414;-86
2022/01/26 06:35:59;;;;;;;5.07;2.10;;;-8.40;99.90;;;;;;5009700;28;20446;-89
2022/01/26 06:38:30;;;;;;;5.80;2.00;;;-8.50;99.90;;;;;;5010926;28;20474;-87
2022/01/26 06:41:00;;;;;;;5.80;2.33;;;-8.40;99.90;;;;;;5010929;28;20392;-88
2022/01/26 06:43:30;;;;;;;7.38;3.42;;;-8.40;99.90;;;;;;4990291;28;20828;-86
2022/01/26 06:46:05;;;;;;;5.75;2.60;;;-8.40;99.90;;;;;;4989500;28;20476;-88
2022/01/26 06:48:58;;;;;;;9.40;3.90;;;-8.50;99.90;;;;;;5021526;28;20823;-87
2022/01/26 06:51:25;;;;;;;10.23;6.00;;;-8.50;99.90;;;;;;4990504;28;20732;-90
2022/01/26 06:53:53;;;;;;;5.90;2.67;;;-8.50;99.90;;;;;;4989626;28;20398;-87
2022/01/26 06:56:21;;;;;;;9.18;2.92;;;-8.50;99.90;;;;;;4990359;28;20389;-87
2022/01/26 06:58:49;;;;;;;16.33;5.10;;;-8.60;99.90;;;;;;5021866;28;20433;-87
2022/01/26 07:01:16;;;;;;;24.95;7.30;;;-8.60;99.90;;;;;;4989408;28;20413;-88
2022/01/26 07:03:46;;;;;;;31.23;9.63;;;-8.60;99.90;;;;;;4989223;28;20398;-89
2022/01/26 07:06:17;;;;;;;27.52;9.40;;;-8.60;99.90;;;;;;5073313;28;20400;-87
2022/01/26 07:08:45;;;;;;;46.80;17.80;;;-8.50;99.90;;;;;;4989215;28;20420;-88
2022/01/26 07:11:13;;;;;;;41.08;18.80;;;-8.50;99.90;;;;;;4973861;28;20473;-87
2022/01/26 07:13:42;;;;;;;55.93;25.43;;;-8.50;99.90;;;;;;5023381;28;20421;-91
2022/01/26 07:21:42;;;;;;;53.15;24.95;;;-8.50;99.90;;;;;;4992159;28;20465;-89
2022/01/26 07:24:10;;;;;;;55.20;25.40;;;-8.50;99.90;;;;;;4990526;28;20428;-88
2022/01/26 07:26:38;;;;;;;54.03;24.52;;;-8.40;99.90;;;;;;4990505;28;20833;-86
2022/01/26 07:29:10;;;;;;;53.70;24.25;;;-8.40;99.90;;;;;;4990353;28;20753;-88
2022/01/26 07:31:42;;;;;;;53.63;23.75;;;-8.30;99.90;;;;;;5006234;28;20412;-89
2022/01/26 07:34:13;;;;;;;54.13;25.17;;;-8.30;99.90;;;;;;4990961;28;20468;-88
2022/01/26 07:36:43;;;;;;;56.90;27.20;;;-8.40;99.90;;;;;;5024281;28;20416;-87
2022/01/26 07:39:15;;;;;;;57.63;25.88;;;-8.30;99.90;;;;;;4991961;28;20432;-87
2022/01/26 07:41:43;;;;;;;54.23;27.40;;;-8.30;99.90;;;;;;4991796;28;20412;-88
2022/01/26 07:44:11;;;;;;;50.40;22.55;;;-8.30;99.90;;;;;;4990578;28;20401;-88
2022/01/26 07:46:39;;;;;;;41.55;18.65;;;-8.30;99.90;;;;;;5006698;28;20405;-88
2022/01/26 07:49:07;;;;;;;32.55;15.43;;;-8.30;99.90;;;;;;4990294;28;20459;-88
2022/01/26 07:51:35;;;;;;;37.50;15.75;;;-8.40;99.90;;;;;;4991433;28;20455;-87
2022/01/26 07:54:03;;;;;;;35.78;14.05;;;-8.40;99.90;;;;;;5005964;28;20393;-89
2022/01/26 07:56:31;;;;;;;35.60;14.50;;;-8.40;99.90;;;;;;5022708;28;20412;-90
2022/01/26 07:58:59;;;;;;;31.48;13.02;;;-8.40;99.90;;;;;;4992694;28;20397;-87
2022/01/26 08:01:30;;;;;;;35.72;13.45;;;-8.40;99.90;;;;;;4993931;28;20455;-87
2022/01/26 08:03:58;;;;;;;26.17;9.88;;;-8.30;99.90;;;;;;4992602;28;20389;-89
2022/01/26 08:06:26;;;;;;;26.77;10.52;;;-8.40;99.90;;;;;;4992867;28;20487;-89
2022/01/26 08:08:54;;;;;;;26.20;9.35;;;-8.60;99.90;;;;;;4993505;28;20504;-89
2022/01/26 08:11:24;;;;;;;28.38;10.65;;;-8.60;99.90;;;;;;4995379;28;20391;-88
2022/01/26 08:13:52;;;;;;;25.52;9.63;;;-8.60;99.90;;;;;;4977699;28;20401;-87
2022/01/26 08:16:20;;;;;;;29.35;11.48;;;-8.60;99.90;;;;;;4993439;28;20389;-89
2022/01/26 08:18:48;;;;;;;34.20;16.57;;;-8.70;99.90;;;;;;4977374;28;20405;-90
2022/01/26 08:21:18;;;;;;;33.92;15.55;;;-8.80;99.90;;;;;;4977089;28;20399;-86
2022/01/26 08:23:47;;;;;;;24.80;10.90;;;-8.80;99.90;;;;;;4993317;28;20450;-86
2022/01/26 08:26:21;;;;;;;21.17;9.27;;;-8.80;99.90;;;;;;4993051;28;20398;-88
2022/01/26 08:28:54;;;;;;;16.63;5.78;;;-9.00;99.90;;;;;;5008331;28;20867;-88
2022/01/26 08:31:25;;;;;;;14.35;4.35;;;-9.10;99.90;;;;;;4975828;28;20401;-89
2022/01/26 08:33:53;;;;;;;8.93;3.53;;;-8.90;99.90;;;;;;4992711;28;20476;-88
2022/01/26 08:36:21;;;;;;;9.93;4.20;;;-9.00;99.90;;;;;;5009230;28;20429;-89
2022/01/26 08:38:48;;;;;;;8.65;3.80;;;-8.80;99.90;;;;;;4992647;28;20759;-89
2022/01/26 08:41:16;;;;;;;7.63;3.50;;;-8.70;99.90;;;;;;4992400;28;20401;-88
2022/01/26 08:43:44;;;;;;;9.38;3.70;;;-8.50;99.90;;;;;;4992246;28;20405;-87
2022/01/26 08:46:12;;;;;;;9.80;3.97;;;-8.50;99.90;;;;;;4992577;28;20496;-87
2022/01/26 08:48:40;;;;;;;8.73;3.35;;;-8.40;99.90;;;;;;4992439;28;20401;-88
2022/01/26 08:51:08;;;;;;;10.23;3.88;;;-8.20;99.90;;;;;;5009019;28;20401;-88
2022/01/26 08:53:36;;;;;;;8.13;4.00;;;-8.30;99.90;;;;;;4994072;28;20956;-88
2022/01/26 08:56:04;;;;;;;9.17;3.93;;;-8.10;99.90;;;;;;4992979;28;20389;-88
2022/01/26 08:58:31;;;;;;;12.30;3.38;;;-8.20;99.90;;;;;;4993889;28;20899;-86
2022/01/26 09:01:00;;;;;;;11.32;3.45;;;-8.30;99.90;;;;;;4993192;28;20428;-87
2022/01/26 09:03:28;;;;;;;10.07;3.45;;;-8.50;99.90;;;;;;5009527;28;20433;-89
2022/01/26 09:05:56;;;;;;;14.52;4.03;;;-8.60;99.90;;;;;;4993895;28;20407;-91
2022/01/26 09:08:26;;;;;;;10.52;4.35;;;-8.50;99.90;;;;;;4993615;28;20405;-88
2022/01/26 09:10:58;;;;;;;9.57;3.92;;;-8.50;99.90;;;;;;4991120;28;20916;-86
2022/01/26 09:13:30;;;;;;;8.73;4.22;;;-8.50;99.90;;;;;;4993529;28;20389;-87
2022/01/26 09:15:58;;;;;;;11.13;4.50;;;-8.30;99.90;;;;;;5010501;28;20405;-86
2022/01/26 09:18:40;;;;;;;11.80;4.67;;;-8.20;99.90;;;;;;4992770;28;20389;-87
2022/01/26 09:21:08;;;;;;;12.57;4.70;;;-8.10;99.90;;;;;;4993140;28;20472;-85
2022/01/26 09:23:36;;;;;;;10.55;5.18;;;-8.20;99.90;;;;;;4995447;28;20405;-87
2022/01/26 09:26:04;;;;;;;11.98;4.03;;;-8.00;99.90;;;;;;4993477;28;20432;-87
2022/01/26 09:28:32;;;;;;;9.35;4.03;;;-8.10;99.90;;;;;;4994448;28;20393;-88
2022/01/26 09:31:00;;;;;;;9.95;4.00;;;-8.00;99.90;;;;;;4994789;28;20409;-89
2022/01/26 09:33:28;;;;;;;10.07;4.40;;;-8.10;99.90;;;;;;4992428;28;20945;-88
2022/01/26 09:35:56;;;;;;;12.02;4.65;;;-8.00;99.90;;;;;;4992609;28;20460;-90
2022/01/26 09:38:25;;;;;;;9.48;4.00;;;-8.00;99.90;;;;;;4993916;28;20386;-89
2022/01/26 09:40:52;;;;;;;9.95;4.35;;;-7.90;99.90;;;;;;4978135;28;20837;-89
2022/01/26 09:43:21;;;;;;;11.77;4.78;;;-7.80;99.90;;;;;;4994301;28;20427;-89
2022/01/26 09:45:49;;;;;;;13.75;5.53;;;-7.80;99.90;;;;;;4996839;28;20832;-89
2022/01/26 09:48:17;;;;;;;11.95;5.60;;;-7.70;99.90;;;;;;4994009;28;20399;-86
2022/01/26 09:50:53;;;;;;;16.63;5.10;;;-7.70;99.90;;;;;;4993398;28;20416;-87
2022/01/26 09:53:28;;;;;;;16.50;4.85;;;-7.50;99.90;;;;;;4993157;28;20389;-87
2022/01/26 09:55:58;;;;;;;17.40;6.80;;;-7.70;99.90;;;;;;5010036;28;20910;-88
2022/01/26 09:58:30;;;;;;;19.30;5.82;;;-7.70;99.90;;;;;;5026630;28;20492;-89
2022/01/26 10:01:03;;;;;;;15.85;6.18;;;-7.60;99.90;;;;;;4994274;28;20408;-88
2022/01/26 10:03:34;;;;;;;19.00;6.82;;;-7.60;99.90;;;;;;4994701;28;20458;-88
2022/01/26 10:06:03;;;;;;;19.67;7.85;;;-7.60;99.90;;;;;;4993933;28;20393;-85
2022/01/26 10:17:18;;;;;;;27.52;11.27;;;-7.40;99.90;;;;;;4994746;28;20395;-89
2022/01/26 10:19:26;;;;;;;27.08;12.02;;;-7.40;99.90;;;;;;4993876;28;20522;-87
2022/01/26 10:21:54;;;;;;;29.58;12.27;;;-7.40;99.90;;;;;;5025164;28;20389;-90
2022/01/26 10:24:28;;;;;;;29.10;13.77;;;-7.40;99.90;;;;;;4978350;28;20412;-88
2022/01/26 10:26:59;;;;;;;29.15;15.35;;;-7.40;99.90;;;;;;4995806;28;20458;-87
2022/01/26 10:29:29;;;;;;;32.03;15.57;;;-7.30;99.90;;;;;;5027065;28;20492;-89
2022/01/26 10:31:58;;;;;;;32.80;15.48;;;-7.30;99.90;;;;;;5027117;28;20420;-87
2022/01/26 10:34:27;;;;;;;28.92;14.40;;;-7.30;99.90;;;;;;4994366;28;20404;-87
2022/01/26 10:36:59;;;;;;;26.77;12.55;;;-7.30;99.90;;;;;;4995120;28;20473;-90
2022/01/26 10:39:32;;;;;;;31.90;11.23;;;-7.20;99.90;;;;;;4994679;28;20389;-89
2022/01/26 10:42:11;;;;;;;22.17;10.23;;;-7.20;99.90;;;;;;5026909;28;20437;-90
2022/01/26 10:44:47;;;;;;;21.23;9.43;;;-7.20;99.90;;;;;;4995568;28;20393;-87
2022/01/26 10:47:27;;;;;;;24.05;10.38;;;-7.20;99.90;;;;;;5028030;28;20830;-88
2022/01/26 10:50:08;;;;;;;26.88;11.10;;;-7.10;99.90;;;;;;4995320;28;20409;-86
2022/01/26 10:52:38;;;;;;;25.63;10.68;;;-7.10;99.90;;;;;;5010865;28;20495;-88
2022/01/26 10:55:09;;;;;;;24.73;11.52;;;-7.10;99.90;;;;;;4992777;28;20398;-88
2022/01/26 10:57:37;;;;;;;27.75;11.45;;;-7.10;99.90;;;;;;4992471;28;20397;-87
2022/01/26 11:00:06;;;;;;;28.00;11.93;;;-7.00;99.90;;;;;;4991410;28;20421;-88
2022/01/26 11:02:34;;;;;;;23.42;10.70;;;-6.90;99.90;;;;;;4990033;28;20392;-87
2022/01/26 11:05:03;;;;;;;27.60;12.45;;;-6.90;99.90;;;;;;5023208;28;20436;-90
2022/01/26 11:07:37;;;;;;;29.08;13.80;;;-6.90;99.90;;;;;;4989698;28;20413;-89
2022/01/26 11:10:09;;;;;;;26.25;12.45;;;-6.90;99.90;;;;;;5004886;28;20404;-88
2022/01/26 11:12:41;;;;;;;30.48;13.43;;;-6.80;99.90;;;;;;4999014;28;20403;-87
2022/01/26 11:15:16;;;;;;;29.02;12.68;;;-6.80;99.90;;;;;;5011177;28;20399;-86
2022/01/26 11:17:47;;;;;;;26.67;11.13;;;-6.80;99.90;;;;;;5010832;28;20423;-86
2022/01/26 11:20:32;;;;;;;26.58;11.55;;;-6.70;99.90;;;;;;5010983;28;20944;-87
2022/01/26 11:23:04;;;;;;;24.02;10.68;;;-6.70;99.90;;;;;;5025368;28;20404;-87
2022/01/26 11:25:45;;;;;;;24.25;10.52;;;-6.60;99.90;;;;;;5010243;28;20614;-87
2022/01/26 11:28:24;;;;;;;21.13;8.83;;;-6.50;99.90;;;;;;5009234;28;20868;-87
2022/01/26 11:30:58;;;;;;;22.97;10.30;;;-6.50;99.90;;;;;;5010543;28;20435;-90
2022/01/26 11:33:29;;;;;;;21.63;9.55;;;-6.50;99.90;;;;;;5011266;28;20383;-89
2022/01/26 11:35:58;;;;;;;23.35;10.60;;;-6.50;99.90;;;;;;5010889;28;20395;-87
2022/01/26 11:47:20;;;;;;;22.38;9.60;;;-6.40;99.90;;;;;;5007153;28;20688;-87
2022/01/26 11:49:52;;;;;;;23.75;9.98;;;-6.40;99.90;;;;;;5007028;28;20388;-86
2022/01/26 11:52:26;;;;;;;23.33;10.30;;;-6.40;99.90;;;;;;5001185;28;20855;-87
2022/01/26 11:54:57;;;;;;;20.05;9.05;;;-6.40;99.90;;;;;;5014199;28;20395;-86
2022/01/26 11:57:42;;;;;;;20.47;9.13;;;-6.40;99.90;;;;;;5008372;28;20403;-85
2022/01/26 12:00:15;;;;;;;20.88;9.20;;;-6.40;99.90;;;;;;5002382;28;20941;-85
2022/01/26 12:05:19;;;;;;;22.13;9.50;;;-6.40;99.90;;;;;;4990876;28;20401;-87
2022/01/26 12:07:56;;;;;;;25.88;10.65;;;-6.40;99.90;;;;;;5013431;28;20419;-87
2022/01/26 12:10:28;;;;;;;21.52;8.65;;;-6.30;99.90;;;;;;4995729;28;20420;-86
2022/01/26 12:13:03;;;;;;;22.77;9.52;;;-6.30;99.90;;;;;;5020074;28;20462;-89
2022/01/26 12:15:41;;;;;;;23.02;9.57;;;-6.20;99.90;;;;;;5009030;28;20396;-87
2022/01/26 12:38:19;;;;;;;18.27;7.38;;;-6.10;99.90;;;;;;5042202;28;20399;-87
2022/01/26 12:43:44;;;;;;;23.25;8.65;;;-6.00;99.90;;;;;;5011177;28;20388;-87
2022/01/26 12:46:15;;;;;;;23.60;9.18;;;-6.00;99.90;;;;;;5006020;28;20414;-88
2022/01/26 12:48:50;;;;;;;23.95;9.93;;;-6.00;99.90;;;;;;5009100;28;20389;-86
2022/01/26 12:51:19;;;;;;;21.23;9.00;;;-6.00;99.90;;;;;;5009531;28;20435;-87
2022/01/26 12:54:02;;;;;;;23.30;9.27;;;-6.00;99.90;;;;;;5001880;28;20402;-88
2022/01/26 12:56:33;;;;;;;21.70;9.15;;;-6.00;99.90;;;;;;5013867;28;20419;-87
2022/01/26 12:59:09;;;;;;;23.73;8.90;;;-6.00;99.90;;;;;;5012805;28;20396;-87
2022/01/26 13:01:38;;;;;;;18.55;7.70;;;-6.00;99.90;;;;;;5012308;28;20391;-87
2022/01/26 13:04:08;;;;;;;22.02;8.60;;;-6.00;99.90;;;;;;5028606;28;20395;-88
2022/01/26 13:06:41;;;;;;;18.67;7.80;;;-6.00;99.90;;;;;;5011601;28;20391;-87
2022/01/26 13:09:18;;;;;;;18.77;8.20;;;-6.00;99.90;;;;;;4995265;28;20415;-86
2022/01/26 13:11:48;;;;;;;21.42;8.43;;;-6.00;99.90;;;;;;4988977;28;20500;-87
2022/01/26 13:14:23;;;;;;;18.87;7.80;;;-5.90;99.90;;;;;;4993283;28;20393;-88
2022/01/26 13:17:21;;;;;;;16.98;7.57;;;-5.80;99.90;;;;;;4992524;28;20400;-86
2022/01/26 13:22:53;;;;;;;18.38;7.35;;;-5.80;99.90;;;;;;4996341;28;20409;-89
2022/01/26 13:36:29;;;;;;;26.95;12.57;;;-5.70;99.90;;;;;;5009438;28;20411;-86
2022/01/26 13:41:45;;;;;;;28.25;16.70;;;-5.70;99.90;;;;;;5011497;28;20413;-86
2022/01/26 13:52:23;;;;;;;22.77;10.30;;;-5.60;99.90;;;;;;5113188;28;20395;-88
2022/01/26 14:00:14;;;;;;;25.98;10.93;;;-5.50;99.90;;;;;;5070246;28;20414;-86
2022/01/26 14:02:42;;;;;;;24.10;13.48;;;-5.50;99.90;;;;;;5113234;28;20473;-87
2022/01/26 14:05:12;;;;;;;25.73;10.77;;;-5.50;99.90;;;;;;5096884;28;20375;-87
2022/01/26 14:07:40;;;;;;;32.17;19.20;;;-5.50;99.90;;;;;;5096708;28;20394;-86
2022/01/26 14:10:08;;;;;;;24.15;11.23;;;-5.50;99.90;;;;;;5096978;28;20518;-87
2022/01/26 14:12:40;;;;;;;28.40;10.57;;;-5.50;99.90;;;;;;5113766;28;20405;-86
2022/01/26 14:15:09;;;;;;;21.52;9.82;;;-5.40;99.90;;;;;;5096416;28;20892;-88
2022/01/26 14:18:01;;;;;;;22.90;9.65;;;-5.40;99.90;;;;;;5097160;28;20919;-87
2022/01/26 14:20:43;;;;;;;22.00;9.68;;;-5.30;99.90;;;;;;5114836;28;20395;-88
2022/01/26 14:25:55;;;;;;;21.30;9.00;;;-5.20;99.90;;;;;;5114373;28;20375;-87
2022/01/26 14:28:30;;;;;;;23.83;11.13;;;-5.20;99.90;;;;;;5096519;28;20436;-85
2022/01/26 14:54:59;;;;;;;17.88;7.82;;;-5.10;99.90;;;;;;5010079;28;20474;-87
2022/01/26 15:29:54;;;;;;;20.02;8.70;;;-5.00;99.90;;;;;;4989236;28;20409;-86
2022/01/26 15:40:27;;;;;;;19.30;8.93;;;-5.00;99.90;;;;;;5062073;28;20386;-87
2022/01/26 15:51:07;;;;;;;21.95;8.75;;;-4.90;99.90;;;;;;5008621;28;20398;-87
2022/01/26 16:07:13;;;;;;;16.35;7.20;;;-4.90;99.90;;;;;;5007710;28;20454;-87
2022/01/26 16:19:09;;;;;;;15.60;7.63;;;-4.80;99.90;;;;;;4989300;28;20393;-87
2022/01/26 16:20:51;;;;;;;17.90;6.90;;;-4.80;99.90;;;;;;5005183;28;20775;-89
2022/01/26 16:26:35;;;;;;;17.92;7.47;;;-4.80;99.90;;;;;;5024205;28;20442;-87
2022/01/26 17:11:05;;;;;;;19.35;8.80;;;-4.60;99.90;;;;;;5011148;28;20482;-89
2022/01/26 18:16:30;;;;;;;16.27;7.18;;;-4.30;99.90;;;;;;4991314;28;20706;-88
2022/01/26 18:32:55;;;;;;;15.10;6.07;;;-4.30;99.90;;;;;;4989709;28;20417;-87
2022/01/26 18:49:36;;;;;;;13.10;5.95;;;-4.20;99.90;;;;;;5050352;28;20578;-87
2022/01/26 18:52:05;;;;;;;13.60;6.00;;;-4.20;99.90;;;;;;5033701;28;20471;-87
2022/01/26 18:54:35;;;;;;;15.65;6.63;;;-4.20;99.90;;;;;;5019571;28;20885;-87
2022/01/26 18:57:09;;;;;;;13.88;6.03;;;-4.10;99.90;;;;;;5008722;28;20391;-86
2022/01/26 18:59:37;;;;;;;16.20;6.45;;;-4.10;99.90;;;;;;5008704;28;20407;-86
2022/01/26 19:02:07;;;;;;;14.27;6.47;;;-4.10;99.90;;;;;;5009909;28;20399;-86
2022/01/26 19:05:00;;;;;;;16.48;6.50;;;-4.10;99.90;;;;;;5009607;28;20814;-86
2022/01/26 19:07:28;;;;;;;14.40;6.93;;;-4.10;99.90;;;;;;4992314;28;20437;-85
2022/01/26 19:09:55;;;;;;;16.40;6.80;;;-4.10;99.90;;;;;;4996842;28;20395;-88
2022/01/26 19:12:26;;;;;;;15.05;6.60;;;-4.10;99.90;;;;;;5082825;28;20401;-85
2022/01/26 19:14:59;;;;;;;12.75;6.07;;;-4.10;99.90;;;;;;5040932;28;20751;-88
2022/01/26 19:17:35;;;;;;;14.88;6.63;;;-4.10;99.90;;;;;;5008633;28;20862;-88
2022/01/26 19:22:59;;;;;;;16.90;6.30;;;-4.00;99.90;;;;;;5009648;28;20426;-88
2022/01/26 19:44:39;;;;;;;12.87;6.43;;;-3.90;99.90;;;;;;5009164;28;20399;-87
2022/01/26 19:52:25;;;;;;;16.75;7.53;;;-3.80;99.90;;;;;;5007917;28;20430;-88
2022/01/26 19:54:56;;;;;;;16.67;7.55;;;-3.80;99.90;;;;;;4992536;28;20403;-87
2022/01/26 19:57:24;;;;;;;16.35;7.93;;;-3.80;99.90;;;;;;4995288;28;20433;-87
2022/01/26 19:59:52;;;;;;;14.63;7.40;;;-3.80;99.90;;;;;;5099241;28;20374;-87